Time;durP1;ratioP1;P1;durP2;ratioP2;P2;SDS_P1;SDS_P2;PMS_P1;PMS_P2;Temp;Humidity;BMP_temperature;BMP_pressure;BME280_temperature;BME280_humidity;BME280_pressure;Samples;Min_cycle;Max_cycle;Signal;HPM_P1;HPM_P2
2023/09/02 00:00:34;;;;;;;3.30;2.10;;;;;;;10.09;56.08;101780.31;4980342;28;20489;-69
2023/09/02 00:02:59;;;;;;;3.20;2.22;;;;;;;10.12;56.04;101779.38;4978056;28;20081;-68
2023/09/02 00:05:24;;;;;;;2.42;2.08;;;;;;;10.09;55.92;101775.06;4981090;28;20045;-68
2023/09/02 00:07:53;;;;;;;7.57;2.95;;;;;;;10.04;56.12;101782.16;4972590;28;20095;-69
2023/09/02 00:10:18;;;;;;;3.63;2.88;;;;;;;10.10;56.22;101775.94;4979969;28;20257;-69
2023/09/02 00:12:44;;;;;;;5.15;3.05;;;;;;;10.09;55.94;101780.31;4977486;28;20568;-71
2023/09/02 00:15:16;;;;;;;4.70;3.43;;;;;;;10.10;55.99;101778.53;4993206;28;20049;-69
2023/09/02 00:17:41;;;;;;;7.65;3.47;;;;;;;10.07;55.93;101776.88;4984664;28;20034;-69
2023/09/02 00:20:13;;;;;;;9.35;4.65;;;;;;;10.08;55.94;101778.59;4985838;28;20033;-69
2023/09/02 00:22:38;;;;;;;5.95;3.90;;;;;;;10.18;55.51;101780.06;4977826;28;20038;-70
2023/09/02 00:25:04;;;;;;;11.82;4.63;;;;;;;10.00;55.72;101777.91;4971795;28;20100;-69
2023/09/02 00:27:35;;;;;;;8.98;4.50;;;;;;;10.00;55.82;101776.16;4980004;28;20520;-70
2023/09/02 00:30:05;;;;;;;8.63;3.22;;;;;;;9.98;55.81;101782.31;4979636;28;20661;-70
2023/09/02 00:32:31;;;;;;;7.82;3.65;;;;;;;9.97;55.85;101780.59;4984959;28;20058;-69
2023/09/02 00:34:56;;;;;;;6.18;3.67;;;;;;;9.95;55.66;101780.63;4978882;28;20062;-69
2023/09/02 00:37:22;;;;;;;4.85;3.38;;;;;;;9.75;55.73;101788.88;4975419;28;20133;-70
2023/09/02 00:39:47;;;;;;;7.55;3.85;;;;;;;9.63;56.37;101783.06;4980514;28;20600;-69
2023/09/02 00:42:16;;;;;;;5.13;2.95;;;;;;;9.63;56.20;101781.28;4996589;28;20030;-69
2023/09/02 00:44:41;;;;;;;5.90;3.28;;;;;;;9.74;55.97;101779.31;4979346;28;20081;-70
2023/09/02 00:47:07;;;;;;;6.55;3.75;;;;;;;9.70;56.04;101776.78;4980701;28;20124;-70
2023/09/02 00:49:32;;;;;;;4.30;2.75;;;;;;;9.72;56.00;101781.13;4979351;28;20029;-70
2023/09/02 00:51:58;;;;;;;5.80;3.05;;;;;;;9.66;56.15;101770.81;4993969;28;20103;-69
2023/09/02 00:54:24;;;;;;;6.35;3.65;;;;;;;9.63;56.13;101770.00;4980293;28;20033;-70
2023/09/02 00:56:50;;;;;;;3.75;3.25;;;;;;;9.57;55.94;101773.63;4983144;28;20039;-70
2023/09/02 00:59:16;;;;;;;5.72;2.80;;;;;;;9.54;56.23;101777.16;4949489;28;20062;-70
2023/09/02 01:01:45;;;;;;;6.95;3.00;;;;;;;9.45;56.58;101776.47;4960106;28;20034;-73
2023/09/02 01:04:11;;;;;;;5.10;3.22;;;;;;;9.42;56.77;101771.34;4977882;28;20189;-73
2023/09/02 01:06:42;;;;;;;3.92;3.03;;;;;;;9.46;56.63;101778.22;4978257;28;20110;-66
2023/09/02 01:09:09;;;;;;;3.20;2.40;;;;;;;9.47;56.76;101779.91;4980063;28;20456;-72
2023/09/02 01:11:35;;;;;;;5.30;2.45;;;;;;;9.57;56.25;101784.06;4980310;28;20515;-72
2023/09/02 01:14:02;;;;;;;6.32;3.08;;;;;;;9.48;56.65;101798.16;4975812;28;20050;-71
2023/09/02 01:16:28;;;;;;;4.15;2.92;;;;;;;9.46;56.47;101793.88;4980254;28;20103;-71
2023/09/02 01:18:53;;;;;;;3.55;2.75;;;;;;;9.39;56.52;101796.59;4993633;28;20035;-71
2023/09/02 01:21:19;;;;;;;4.25;2.55;;;;;;;9.33;56.47;101798.47;4980355;28;20056;-71
2023/09/02 01:24:09;;;;;;;5.35;3.53;;;;;;;9.24;56.57;101799.50;4992335;28;20100;-72
2023/09/02 01:26:45;;;;;;;7.82;3.63;;;;;;;9.06;56.86;101794.66;4984793;28;21828;-72
2023/09/02 01:29:18;;;;;;;5.43;3.60;;;;;;;9.02;57.33;101791.22;4984657;28;20042;-73
2023/09/02 01:31:46;;;;;;;6.30;3.30;;;;;;;9.10;57.26;101796.31;4968364;28;20041;-72
2023/09/02 01:34:12;;;;;;;4.90;3.45;;;;;;;9.26;56.86;101797.72;4959821;28;20100;-70
2023/09/02 01:36:39;;;;;;;4.22;2.97;;;;;;;9.34;56.67;101795.84;4970266;28;20046;-70
2023/09/02 01:39:09;;;;;;;5.10;3.22;;;;;;;9.26;56.55;101796.88;4975947;28;20038;-71
2023/09/02 01:41:36;;;;;;;5.93;3.22;;;;;;;9.40;56.08;101795.69;4978896;28;20045;-70
2023/09/02 01:44:03;;;;;;;3.75;2.80;;;;;;;9.38;56.06;101796.63;4973812;28;20113;-70
2023/09/02 01:46:28;;;;;;;3.95;2.30;;;;;;;9.24;56.17;101803.88;4978669;28;20098;-71
2023/09/02 01:48:56;;;;;;;5.18;3.53;;;;;;;9.14;56.32;101808.38;4977370;28;20311;-71
2023/09/02 01:51:23;;;;;;;4.10;3.15;;;;;;;9.22;56.29;101809.09;4979693;28;20041;-71
2023/09/02 01:53:50;;;;;;;5.97;2.22;;;;;;;9.23;56.42;101810.84;4977127;28;20049;-69
2023/09/02 01:56:16;;;;;;;5.00;2.47;;;;;;;9.24;56.16;101817.75;4980182;28;20030;-71
2023/09/02 01:58:41;;;;;;;3.47;1.85;;;;;;;9.16;56.10;101811.81;4985542;28;20620;-71
2023/09/02 02:01:07;;;;;;;3.08;1.90;;;;;;;9.19;56.22;101811.78;4979799;28;20076;-71
2023/09/02 02:03:40;;;;;;;3.17;1.90;;;;;;;9.25;56.10;101811.63;4978606;28;20042;-71
2023/09/02 02:06:09;;;;;;;2.90;2.30;;;;;;;9.25;55.79;101809.03;4972809;28;20030;-70
2023/09/02 02:08:44;;;;;;;5.05;2.17;;;;;;;9.27;55.72;101829.88;4995806;28;20092;-70
2023/09/02 02:11:13;;;;;;;3.08;2.53;;;;;;;9.13;56.32;101827.53;4973058;28;20947;-70
2023/09/02 02:13:42;;;;;;;4.32;2.33;;;;;;;9.09;56.32;101831.09;4982645;28;20124;-70
2023/09/02 02:16:09;;;;;;;5.28;2.35;;;;;;;9.07;56.37;101835.47;4985785;28;20156;-72
2023/09/02 02:18:35;;;;;;;3.38;2.35;;;;;;;9.07;56.44;101838.94;4980652;28;20467;-70
2023/09/02 02:21:05;;;;;;;2.63;2.00;;;;;;;9.12;56.32;101836.25;4981687;28;20069;-72
2023/09/02 02:23:32;;;;;;;2.80;2.35;;;;;;;9.14;56.50;101830.13;4944135;28;20046;-72
2023/09/02 02:26:04;;;;;;;1.80;1.35;;;;;;;9.08;56.01;101827.63;4969892;28;20042;-72
2023/09/02 02:28:30;;;;;;;1.58;0.80;;;;;;;9.07;56.24;101831.09;4983253;28;20038;-72
2023/09/02 02:30:58;;;;;;;1.90;1.15;;;;;;;9.13;56.13;101837.97;4980767;28;20385;-72
2023/09/02 02:33:24;;;;;;;1.63;0.80;;;;;;;9.06;55.94;101838.97;4988040;28;20041;-72
2023/09/02 02:35:50;;;;;;;1.90;0.93;;;;;;;9.02;56.11;101834.72;4982410;28;20432;-70
2023/09/02 02:38:20;;;;;;;1.73;0.73;;;;;;;9.06;56.16;101832.00;4979033;28;20045;-71
2023/09/02 02:40:46;;;;;;;2.45;1.85;;;;;;;9.10;55.85;101832.81;4984436;28;20045;-69
2023/09/02 02:43:12;;;;;;;3.20;1.08;;;;;;;9.04;55.93;101830.31;4987639;28;20042;-68
2023/09/02 02:45:39;;;;;;;2.35;0.93;;;;;;;9.06;55.87;101836.38;4994638;28;20547;-68
2023/09/02 02:48:05;;;;;;;3.20;0.85;;;;;;;9.04;55.72;101839.00;4988463;28;20081;-68
2023/09/02 02:50:36;;;;;;;4.28;1.05;;;;;;;9.02;55.77;101835.56;4979954;28;20528;-71
2023/09/02 02:53:02;;;;;;;1.60;0.57;;;;;;;9.07;55.90;101838.06;4997795;28;20073;-69
2023/09/02 02:55:27;;;;;;;1.67;0.80;;;;;;;9.05;55.85;101837.25;4980141;28;20158;-70
2023/09/02 02:57:53;;;;;;;1.38;1.00;;;;;;;8.93;55.67;101833.97;4996867;28;20469;-68
2023/09/02 03:00:18;;;;;;;1.88;0.70;;;;;;;8.82;56.10;101837.66;4986230;28;20084;-69
2023/09/02 03:02:43;;;;;;;1.05;0.57;;;;;;;8.69;56.35;101834.38;4986209;28;20065;-68
2023/09/02 03:05:12;;;;;;;1.05;0.35;;;;;;;8.62;56.46;101832.75;4983052;28;20046;-70
2023/09/02 03:07:41;;;;;;;1.00;0.50;;;;;;;8.71;56.66;101830.03;4978832;28;20692;-70
2023/09/02 03:10:07;;;;;;;1.40;0.40;;;;;;;8.78;56.62;101829.03;4988851;28;20408;-74
2023/09/02 03:12:33;;;;;;;1.98;0.47;;;;;;;8.70;56.66;101826.53;4967406;28;20034;-76
2023/09/02 03:14:58;;;;;;;1.55;0.60;;;;;;;8.68;56.54;101830.06;4983171;28;20077;-74
2023/09/02 03:17:26;;;;;;;3.28;1.13;;;;;;;8.70;56.51;101833.50;4981454;28;20133;-74
2023/09/02 03:19:52;;;;;;;2.50;0.82;;;;;;;8.68;56.46;101822.22;4985355;28;20021;-75
2023/09/02 03:22:25;;;;;;;2.60;0.70;;;;;;;8.72;56.70;101831.75;4982668;28;21132;-74
2023/09/02 03:24:54;;;;;;;2.72;1.05;;;;;;;8.66;56.46;101834.44;4982485;28;20042;-74
2023/09/02 03:27:25;;;;;;;2.97;1.03;;;;;;;8.61;56.57;101826.69;4968483;28;20125;-74
2023/09/02 03:29:51;;;;;;;1.83;0.85;;;;;;;8.66;56.74;101831.81;4981397;28;20030;-74
2023/09/02 03:32:18;;;;;;;2.47;0.45;;;;;;;8.68;56.31;101833.50;4966798;28;21148;-75
2023/09/02 03:34:43;;;;;;;1.92;0.95;;;;;;;8.63;56.59;101830.13;4999551;28;20034;-73
2023/09/02 03:37:11;;;;;;;1.95;1.17;;;;;;;8.71;56.23;101840.44;4952097;28;20407;-74
2023/09/02 03:39:36;;;;;;;1.92;1.08;;;;;;;8.79;56.14;101843.78;4955936;28;20037;-75
2023/09/02 03:42:02;;;;;;;4.38;1.27;;;;;;;8.72;56.33;101836.97;4966223;28;20030;-75
2023/09/02 03:44:28;;;;;;;1.67;0.80;;;;;;;8.64;56.15;101839.66;4991744;28;20532;-75
2023/09/02 03:46:53;;;;;;;1.38;0.50;;;;;;;8.68;56.12;101840.47;4968379;28;20025;-75
2023/09/02 03:49:19;;;;;;;2.42;0.80;;;;;;;8.67;56.22;101838.75;4982493;28;20884;-75
2023/09/02 03:51:44;;;;;;;1.15;0.57;;;;;;;8.62;56.35;101843.19;4974101;28;20041;-75
2023/09/02 03:54:11;;;;;;;3.90;0.63;;;;;;;8.55;56.41;101842.41;4966260;28;20118;-75
2023/09/02 03:56:39;;;;;;;1.67;0.77;;;;;;;8.67;56.91;101849.16;4986096;28;20021;-75
2023/09/02 03:59:09;;;;;;;2.17;0.63;;;;;;;8.77;56.97;101851.63;4965522;28;20587;-75
2023/09/02 04:01:35;;;;;;;2.30;0.88;;;;;;;8.85;56.70;101848.91;4989991;28;20329;-75
2023/09/02 04:04:03;;;;;;;1.30;0.70;;;;;;;8.92;56.28;101849.66;4978378;28;20129;-75
2023/09/02 04:06:29;;;;;;;1.42;0.73;;;;;;;8.94;56.27;101859.19;4982415;28;20054;-72
2023/09/02 04:08:55;;;;;;;2.45;1.30;;;;;;;8.77;56.08;101854.25;4980914;28;20077;-71
2023/09/02 04:11:22;;;;;;;1.83;0.77;;;;;;;8.77;56.07;101850.78;4982397;28;20053;-71
2023/09/02 04:13:47;;;;;;;1.48;0.80;;;;;;;8.81;56.31;101859.38;4979769;28;20030;-71
2023/09/02 04:16:13;;;;;;;1.23;0.80;;;;;;;8.77;56.45;101864.66;4965057;28;20108;-69
2023/09/02 04:18:39;;;;;;;1.45;0.82;;;;;;;8.78;56.04;101868.13;4984371;28;20475;-70
2023/09/02 04:21:05;;;;;;;1.73;0.73;;;;;;;8.73;56.40;101864.75;4977860;28;20038;-71
2023/09/02 04:23:32;;;;;;;1.58;0.55;;;;;;;8.75;56.16;101869.03;4975921;28;20364;-73
2023/09/02 04:26:03;;;;;;;1.35;0.98;;;;;;;8.68;56.23;101870.00;4967776;28;20604;-73
2023/09/02 04:28:29;;;;;;;4.40;0.93;;;;;;;8.62;56.22;101866.63;4983651;28;20112;-70
2023/09/02 04:30:56;;;;;;;2.22;1.50;;;;;;;8.49;56.33;101872.00;4979931;28;20078;-73
2023/09/02 04:33:24;;;;;;;6.45;1.60;;;;;;;8.43;56.72;101877.34;4994461;28;21346;-73
2023/09/02 04:35:50;;;;;;;1.80;1.00;;;;;;;8.40;56.62;101877.38;4996987;28;20037;-72
2023/09/02 04:38:15;;;;;;;2.05;1.05;;;;;;;8.44;56.94;101880.81;4975617;28;20180;-73
2023/09/02 04:40:44;;;;;;;2.42;0.63;;;;;;;8.43;56.94;101879.94;4979433;28;20030;-72
2023/09/02 04:43:12;;;;;;;3.38;0.77;;;;;;;8.53;56.77;101883.25;4984351;28;20041;-71
2023/09/02 04:45:40;;;;;;;1.67;0.98;;;;;;;8.57;56.44;101880.59;4979457;28;20038;-72
2023/09/02 04:48:09;;;;;;;2.03;0.77;;;;;;;8.62;56.41;101885.72;4964950;28;20523;-72
2023/09/02 04:50:38;;;;;;;4.97;1.30;;;;;;;8.52;56.35;101887.63;4974441;28;20041;-71
2023/09/02 04:53:07;;;;;;;1.65;0.95;;;;;;;8.50;56.53;101889.38;4979395;28;20619;-75
2023/09/02 04:55:39;;;;;;;2.28;1.02;;;;;;;8.62;56.42;101885.72;4977810;28;20030;-73
2023/09/02 04:58:07;;;;;;;1.75;0.90;;;;;;;8.69;56.32;101891.69;4979920;28;20048;-74
2023/09/02 05:00:38;;;;;;;1.63;1.10;;;;;;;8.77;56.28;101895.94;4963953;28;20688;-67
2023/09/02 05:03:05;;;;;;;5.00;1.15;;;;;;;8.90;56.11;101896.63;4978364;28;20042;-70
2023/09/02 05:05:32;;;;;;;2.53;1.02;;;;;;;8.97;55.96;101899.97;4979608;28;20278;-74
2023/09/02 05:08:02;;;;;;;2.92;1.40;;;;;;;8.90;55.80;101903.56;4988126;28;20526;-74
2023/09/02 05:10:29;;;;;;;2.33;1.23;;;;;;;8.93;55.97;101904.38;4978947;28;20034;-74
2023/09/02 05:12:57;;;;;;;2.17;1.45;;;;;;;9.12;55.66;101909.25;4983830;28;20624;-75
2023/09/02 05:15:22;;;;;;;3.30;1.70;;;;;;;9.11;55.31;101907.56;4993340;28;20065;-75
2023/09/02 05:17:50;;;;;;;2.65;1.35;;;;;;;9.14;55.65;101910.09;4996917;28;20041;-75
2023/09/02 05:20:17;;;;;;;4.85;1.67;;;;;;;9.26;55.40;101907.28;4980487;28;20042;-74
2023/09/02 05:22:43;;;;;;;3.65;1.35;;;;;;;9.24;55.39;101914.28;4962409;28;20120;-74
2023/09/02 05:25:09;;;;;;;4.50;1.60;;;;;;;9.44;54.91;101911.31;4981394;28;20065;-73
2023/09/02 05:27:36;;;;;;;4.10;1.73;;;;;;;9.60;54.39;101914.47;4983111;28;20910;-74
2023/09/02 05:30:03;;;;;;;2.53;1.65;;;;;;;9.68;54.33;101911.72;4982825;28;20034;-73
2023/09/02 05:32:28;;;;;;;3.50;1.33;;;;;;;9.82;54.67;101911.50;4978690;28;20512;-73
2023/09/02 05:34:56;;;;;;;5.15;2.03;;;;;;;10.97;53.99;101909.78;4978835;28;20073;-73
2023/09/02 05:37:22;;;;;;;3.42;1.75;;;;;;;12.76;48.85;101913.41;4969122;28;20496;-73
2023/09/02 05:39:50;;;;;;;2.92;1.30;;;;;;;14.24;46.03;101909.00;4985390;28;20079;-73
2023/09/02 05:42:15;;;;;;;2.53;1.48;;;;;;;15.14;43.14;101904.44;4984013;28;20092;-73
2023/09/02 05:44:41;;;;;;;2.33;1.55;;;;;;;14.61;43.08;101925.97;4979402;28;20078;-73
2023/09/02 05:47:06;;;;;;;5.80;1.38;;;;;;;14.18;43.10;101914.50;4978332;28;20429;-73
2023/09/02 05:49:36;;;;;;;2.95;1.83;;;;;;;13.68;43.97;101912.88;4979929;28;20535;-73
2023/09/02 05:52:04;;;;;;;3.53;1.20;;;;;;;13.28;45.70;101911.63;4980519;28;20655;-75
2023/09/02 05:54:29;;;;;;;3.75;1.83;;;;;;;13.08;46.32;101914.94;4977771;28;20030;-75
2023/09/02 05:56:55;;;;;;;2.45;1.50;;;;;;;13.71;45.45;101914.53;4981281;28;20042;-75
2023/09/02 05:59:20;;;;;;;3.13;1.88;;;;;;;15.34;43.70;101918.56;4976879;28;20053;-76
2023/09/02 06:01:46;;;;;;;4.15;1.83;;;;;;;16.80;39.76;101915.31;4979658;28;20543;-74
2023/09/02 06:04:12;;;;;;;3.92;1.30;;;;;;;18.31;36.65;101911.81;4979065;28;20960;-73
2023/09/02 06:06:37;;;;;;;2.88;1.75;;;;;;;19.64;34.10;101919.84;4978871;28;20022;-73
2023/09/02 06:09:05;;;;;;;3.95;1.88;;;;;;;20.67;32.11;101918.56;4985232;28;20536;-73
2023/09/02 06:11:31;;;;;;;3.28;1.77;;;;;;;21.11;31.00;101920.06;4977234;28;20041;-73
2023/09/02 06:13:56;;;;;;;3.03;1.80;;;;;;;21.76;30.98;101924.41;4984401;28;20042;-73
2023/09/02 06:16:27;;;;;;;2.63;1.70;;;;;;;22.56;29.55;101923.94;4977703;28;20049;-74
2023/09/02 06:18:54;;;;;;;4.35;2.22;;;;;;;23.03;28.75;101933.78;4978562;28;20046;-74
2023/09/02 06:21:22;;;;;;;3.97;2.38;;;;;;;22.98;29.42;101934.97;4977892;28;20030;-71
2023/09/02 06:23:50;;;;;;;4.10;2.45;;;;;;;23.61;28.37;101923.91;4983391;28;20034;-72
2023/09/02 06:26:18;;;;;;;3.38;2.45;;;;;;;24.15;27.95;101935.66;4973482;28;20185;-73
2023/09/02 06:28:44;;;;;;;5.18;2.10;;;;;;;24.77;26.88;101931.41;4977613;28;20121;-73
2023/09/02 06:31:10;;;;;;;3.08;2.22;;;;;;;25.53;25.52;101931.22;4968366;28;20058;-74
2023/09/02 06:33:36;;;;;;;4.43;2.15;;;;;;;25.83;24.65;101933.00;4962059;28;20060;-72
2023/09/02 06:36:16;;;;;;;5.65;1.90;;;;;;;25.70;26.35;101943.13;4984188;28;20026;-73
2023/09/02 06:38:42;;;;;;;3.58;1.58;;;;;;;26.05;25.24;101937.28;4978905;28;20046;-73
2023/09/02 06:41:13;;;;;;;2.38;1.83;;;;;;;26.10;25.51;101945.78;4981976;28;20038;-72
2023/09/02 06:43:39;;;;;;;5.20;1.45;;;;;;;26.58;25.79;101953.06;4979598;28;20055;-73
2023/09/02 06:46:23;;;;;;;3.60;1.90;;;;;;;27.39;24.47;101957.19;4977579;28;20106;-73
2023/09/02 06:48:51;;;;;;;3.22;1.42;;;;;;;27.65;24.38;101952.00;4979926;28;20874;-72
2023/09/02 06:51:19;;;;;;;3.38;1.13;;;;;;;27.75;23.40;101957.34;4993965;28;20520;-72
2023/09/02 06:53:45;;;;;;;2.08;0.90;;;;;;;27.60;23.51;101959.63;4976311;28;20058;-71
2023/09/02 06:56:14;;;;;;;2.90;1.00;;;;;;;27.95;23.25;101974.19;4986477;28;20041;-71
2023/09/02 06:58:41;;;;;;;2.40;1.30;;;;;;;28.00;24.28;101974.56;4995090;28;20070;-71
2023/09/02 07:01:15;;;;;;;2.38;0.90;;;;;;;28.19;23.83;101969.13;4981096;28;20069;-70
2023/09/02 07:03:41;;;;;;;2.05;0.50;;;;;;;28.57;23.92;101975.19;4974503;28;20593;-71
2023/09/02 07:06:08;;;;;;;2.63;0.80;;;;;;;28.85;23.33;101977.81;4985744;28;20029;-70
2023/09/02 07:08:34;;;;;;;1.15;0.70;;;;;;;28.42;23.31;101982.09;4980078;28;20069;-72
2023/09/02 07:10:59;;;;;;;1.20;0.75;;;;;;;29.34;21.43;101978.16;4983136;28;20030;-74
2023/09/02 07:13:25;;;;;;;2.55;0.60;;;;;;;29.84;22.83;101981.94;4979567;28;20093;-75
2023/09/02 07:16:01;;;;;;;0.80;0.50;;;;;;;30.51;21.01;101980.09;4983269;28;20514;-72
2023/09/02 07:18:27;;;;;;;2.50;0.77;;;;;;;30.91;20.76;101986.53;4982243;28;20148;-72
2023/09/02 07:21:03;;;;;;;2.97;0.80;;;;;;;29.97;21.74;101993.97;4979614;28;21047;-68
2023/09/02 07:23:29;;;;;;;3.88;0.77;;;;;;;29.58;22.11;101996.28;4978647;28;20031;-68
2023/09/02 07:26:00;;;;;;;1.08;0.55;;;;;;;29.04;22.04;101998.31;4982578;28;20084;-68
2023/09/02 07:28:26;;;;;;;1.63;0.85;;;;;;;28.73;22.75;102006.78;4985181;28;20038;-69
2023/09/02 07:30:52;;;;;;;1.55;0.80;;;;;;;29.75;21.86;102002.63;4985591;28;20397;-68
2023/09/02 07:33:17;;;;;;;2.97;0.50;;;;;;;29.74;20.91;102007.16;4987036;28;20034;-69
2023/09/02 07:35:43;;;;;;;2.13;0.95;;;;;;;29.42;22.09;102004.31;4977721;28;20282;-68
2023/09/02 07:38:11;;;;;;;1.00;0.55;;;;;;;29.12;22.39;102017.22;4981751;28;20492;-69
2023/09/02 07:40:37;;;;;;;2.20;0.43;;;;;;;28.23;23.18;102021.53;4984772;28;20510;-68
2023/09/02 07:43:03;;;;;;;1.02;0.32;;;;;;;28.45;22.86;102008.69;4983262;28;20041;-68
2023/09/02 07:45:29;;;;;;;1.67;0.55;;;;;;;28.51;23.04;102016.97;4978488;28;20100;-69
2023/09/02 07:47:55;;;;;;;2.78;0.68;;;;;;;27.93;23.45;102014.63;4971328;28;20054;-68
2023/09/02 07:50:21;;;;;;;1.58;0.40;;;;;;;29.49;22.31;102016.94;4995216;28;20096;-68
2023/09/02 07:52:48;;;;;;;2.03;0.22;;;;;;;30.49;21.41;102016.31;4987162;28;20065;-69
2023/09/02 07:55:13;;;;;;;2.55;0.52;;;;;;;30.56;21.78;102020.09;4980682;28;20125;-69
2023/09/02 07:57:39;;;;;;;1.40;0.40;;;;;;;30.21;21.10;102019.31;4978018;28;20042;-67
2023/09/02 08:00:05;;;;;;;0.70;0.35;;;;;;;29.70;21.61;102027.34;4981206;28;20034;-68
2023/09/02 08:02:37;;;;;;;3.65;0.50;;;;;;;29.07;22.88;102024.88;4955992;28;20049;-67
2023/09/02 08:05:05;;;;;;;2.55;0.60;;;;;;;29.54;21.54;102033.47;4979146;28;20042;-68
2023/09/02 08:07:31;;;;;;;0.80;0.20;;;;;;;30.12;21.17;102031.09;4977101;28;20041;-69
2023/09/02 08:09:59;;;;;;;1.42;0.40;;;;;;;30.69;19.76;102028.53;4981516;28;20079;-69
2023/09/02 08:12:25;;;;;;;1.25;0.10;;;;;;;30.98;20.48;102032.56;4955976;28;20459;-69
2023/09/02 08:14:53;;;;;;;0.85;0.10;;;;;;;31.43;19.12;102028.50;4971941;28;20556;-69
2023/09/02 08:17:19;;;;;;;1.65;0.20;;;;;;;31.13;19.13;102036.28;4985144;28;20457;-69
2023/09/02 08:19:45;;;;;;;0.40;0.10;;;;;;;31.31;19.18;102033.41;4969962;28;20137;-68
2023/09/02 08:22:13;;;;;;;2.33;0.20;;;;;;;30.25;20.37;102036.03;4979958;28;20037;-69
2023/09/02 08:24:40;;;;;;;0.43;0.20;;;;;;;29.41;21.89;102038.44;4994463;28;20041;-69
2023/09/02 08:27:05;;;;;;;0.77;0.20;;;;;;;29.39;23.07;102034.22;4993740;28;20030;-68
2023/09/02 08:29:30;;;;;;;0.47;0.20;;;;;;;29.53;22.01;102037.19;4976986;28;20030;-68
2023/09/02 08:31:58;;;;;;;1.70;0.20;;;;;;;29.83;20.79;102026.91;4978556;28;20030;-73
2023/09/02 08:34:24;;;;;;;0.82;0.10;;;;;;;30.52;20.83;102040.28;4959248;28;20046;-69
2023/09/02 08:36:49;;;;;;;0.95;0.20;;;;;;;28.75;22.03;102043.31;4964083;28;20038;-68
2023/09/02 08:39:15;;;;;;;0.82;0.10;;;;;;;28.65;22.51;102047.91;4979020;28;20088;-69
2023/09/02 08:41:44;;;;;;;0.90;0.40;;;;;;;29.32;22.00;102039.38;4978464;28;20434;-68
2023/09/02 08:44:15;;;;;;;1.98;0.20;;;;;;;28.06;22.85;102031.25;4982594;28;20653;-70
2023/09/02 08:46:45;;;;;;;2.67;0.28;;;;;;;27.48;24.39;102037.66;4977882;28;20041;-68
2023/09/02 08:49:11;;;;;;;2.40;0.40;;;;;;;27.14;24.53;102033.78;4985447;28;20095;-68
2023/09/02 08:51:37;;;;;;;1.67;0.30;;;;;;;27.41;23.77;102039.25;4977100;28;20054;-68
2023/09/02 08:54:07;;;;;;;0.88;0.20;;;;;;;26.51;24.29;102048.38;4981547;28;20042;-69
2023/09/02 08:56:33;;;;;;;1.25;0.40;;;;;;;25.61;25.38;102051.84;4983528;28;20187;-69
2023/09/02 08:58:59;;;;;;;1.20;0.28;;;;;;;25.03;26.58;102066.47;4981292;28;20073;-68
2023/09/02 09:01:24;;;;;;;2.75;0.40;;;;;;;24.66;26.73;102063.31;4976939;28;20057;-68
2023/09/02 09:03:55;;;;;;;7.90;0.50;;;;;;;24.96;27.34;102065.28;4978839;28;20129;-68
2023/09/02 09:06:24;;;;;;;1.50;0.20;;;;;;;25.16;27.70;102070.81;4979218;28;20057;-68
2023/09/02 09:08:52;;;;;;;1.05;0.40;;;;;;;24.40;28.17;102068.06;4978065;28;20030;-68
2023/09/02 09:11:20;;;;;;;2.40;0.73;;;;;;;24.77;27.00;102071.31;4979458;28;20030;-68
2023/09/02 09:13:48;;;;;;;2.03;0.63;;;;;;;24.13;28.16;102071.16;4978423;28;20131;-68
2023/09/02 09:16:19;;;;;;;2.63;0.30;;;;;;;24.61;27.85;102085.06;4986907;28;20034;-68
2023/09/02 09:18:45;;;;;;;2.75;0.40;;;;;;;24.59;27.68;102089.72;4978575;28;20038;-68
2023/09/02 09:21:11;;;;;;;5.75;1.15;;;;;;;24.22;28.05;102084.59;4982061;28;20497;-68
2023/09/02 09:23:36;;;;;;;1.25;0.30;;;;;;;23.93;27.80;102075.38;4977818;28;20025;-68
2023/09/02 09:26:03;;;;;;;2.75;0.35;;;;;;;23.90;28.41;102080.94;4983133;28;20055;-69
2023/09/02 09:28:50;;;;;;;2.03;0.38;;;;;;;23.95;28.85;102084.97;4979440;28;20053;-68
2023/09/02 09:31:16;;;;;;;2.70;0.35;;;;;;;24.36;28.78;102088.00;4978202;28;20077;-69
2023/09/02 09:33:49;;;;;;;1.63;0.50;;;;;;;24.32;29.30;102091.88;4973539;28;21091;-68
2023/09/02 09:36:14;;;;;;;2.30;0.30;;;;;;;24.22;29.57;102089.94;4979435;28;20669;-68
2023/09/02 09:38:40;;;;;;;3.30;0.40;;;;;;;24.26;28.01;102103.03;4976258;28;20037;-68
2023/09/02 09:41:11;;;;;;;2.30;0.40;;;;;;;23.71;27.89;102103.72;4982027;28;20125;-68
2023/09/02 09:43:36;;;;;;;;;;;;;;;24.36;28.66;102110.22;4970952;28;20051;-69
2023/09/02 09:46:03;;;;;;;2.63;0.50;;;;;;;24.38;28.52;102115.44;4976935;28;19917;-68
2023/09/02 09:48:30;;;;;;;3.50;0.95;;;;;;;24.12;29.11;102118.34;4979640;28;20034;-69
2023/09/02 09:50:56;;;;;;;3.15;0.47;;;;;;;24.17;28.70;102118.00;4975274;28;21250;-68
2023/09/02 09:53:21;;;;;;;1.27;0.20;;;;;;;23.79;29.82;102120.00;4976807;28;20035;-69
2023/09/02 09:55:47;;;;;;;1.10;0.60;;;;;;;24.14;28.78;102112.88;4979709;28;20045;-69
2023/09/02 09:58:23;;;;;;;1.38;0.38;;;;;;;24.27;28.80;102113.63;4991328;28;20038;-69
2023/09/02 10:00:52;;;;;;;4.30;0.47;;;;;;;24.39;28.00;102109.97;4978830;28;20050;-69
2023/09/02 10:03:29;;;;;;;2.25;0.50;;;;;;;25.00;27.17;102119.41;4973253;28;20062;-69
2023/09/02 10:06:01;;;;;;;1.90;0.65;;;;;;;25.24;27.25;102113.81;4982548;28;20064;-69
2023/09/02 10:08:27;;;;;;;3.60;0.52;;;;;;;25.13;27.96;102113.84;4974736;28;20523;-68
2023/09/02 10:10:55;;;;;;;0.75;0.40;;;;;;;24.88;27.98;102120.34;4976995;28;20034;-68
2023/09/02 10:13:20;;;;;;;4.70;0.82;;;;;;;24.63;28.06;102131.22;4976258;28;20082;-69
2023/09/02 10:15:47;;;;;;;2.35;0.88;;;;;;;24.05;28.39;102130.47;4978387;28;20061;-69
2023/09/02 10:18:12;;;;;;;1.55;0.70;;;;;;;23.15;29.56;102135.50;4982059;28;20412;-69
2023/09/02 10:20:38;;;;;;;3.90;0.93;;;;;;;22.40;30.37;102131.09;4976310;28;20038;-69
2023/09/02 10:23:08;;;;;;;3.35;0.80;;;;;;;22.17;30.68;102133.59;4976258;28;20930;-68
2023/09/02 10:25:42;;;;;;;5.45;1.25;;;;;;;22.11;30.73;102139.31;4976112;28;20036;-69
2023/09/02 10:28:11;;;;;;;2.20;0.60;;;;;;;21.64;32.04;102150.53;4982302;28;20796;-69
2023/09/02 10:30:47;;;;;;;1.98;0.60;;;;;;;21.81;32.39;102144.94;4977316;28;20038;-69
2023/09/02 10:33:39;;;;;;;1.35;0.55;;;;;;;22.65;30.30;102150.66;4974468;28;20061;-69
2023/09/02 10:36:06;;;;;;;4.68;0.60;;;;;;;22.62;30.42;102150.91;4981607;28;20042;-69
2023/09/02 10:38:33;;;;;;;3.28;0.50;;;;;;;23.69;29.34;102151.00;4982663;28;20042;-68
2023/09/02 10:41:12;;;;;;;4.82;0.50;;;;;;;24.76;28.27;102149.78;4982235;28;20100;-68
2023/09/02 10:43:39;;;;;;;1.85;0.50;;;;;;;25.30;26.39;102156.13;4979338;28;20041;-69
2023/09/02 10:46:08;;;;;;;5.15;0.70;;;;;;;25.26;26.91;102166.25;4981557;28;20045;-69
2023/09/02 10:48:40;;;;;;;1.95;0.50;;;;;;;24.87;27.13;102158.78;4985093;28;20042;-69
2023/09/02 10:51:07;;;;;;;3.60;0.68;;;;;;;24.07;29.19;102162.41;4979581;28;20045;-68
2023/09/02 10:53:47;;;;;;;2.35;0.45;;;;;;;24.08;28.06;102164.09;4978455;28;20120;-68
2023/09/02 10:56:36;;;;;;;2.85;0.50;;;;;;;23.93;28.91;102156.31;4981132;28;20046;-69
2023/09/02 10:59:06;;;;;;;2.00;0.30;;;;;;;23.66;31.52;102158.44;4977069;28;20046;-68
2023/09/02 11:01:50;;;;;;;2.87;0.90;;;;;;;22.87;31.69;102164.19;4997417;28;20046;-68
2023/09/02 11:04:40;;;;;;;1.25;0.40;;;;;;;22.59;32.06;102162.63;4978044;28;20136;-69
2023/09/02 11:07:22;;;;;;;2.10;0.30;;;;;;;22.02;32.49;102165.72;4977393;28;20033;-68
2023/09/02 11:09:58;;;;;;;2.90;0.40;;;;;;;21.22;33.60;102163.03;4977218;28;20631;-68
2023/09/02 11:12:24;;;;;;;4.72;0.40;;;;;;;20.89;34.15;102162.47;4978615;28;20041;-68
2023/09/02 11:15:08;;;;;;;1.55;0.40;;;;;;;20.72;35.72;102165.31;4992439;28;20038;-70
2023/09/02 11:17:37;;;;;;;1.77;0.20;;;;;;;21.00;34.22;102166.22;4964870;28;20061;-68
2023/09/02 11:20:05;;;;;;;2.17;0.50;;;;;;;21.85;32.98;102169.53;4975267;28;20426;-68
2023/09/02 11:22:49;;;;;;;1.70;0.75;;;;;;;22.54;32.33;102168.28;4994769;28;20405;-69
2023/09/02 11:25:33;;;;;;;2.67;0.40;;;;;;;23.26;31.81;102167.56;4977723;28;20037;-69
2023/09/02 11:28:01;;;;;;;1.90;0.28;;;;;;;22.62;32.44;102161.56;4974026;28;20360;-69
2023/09/02 11:30:29;;;;;;;5.03;0.57;;;;;;;22.12;32.74;102165.00;4965998;28;20034;-69
2023/09/02 11:32:56;;;;;;;3.20;0.82;;;;;;;21.06;34.40;102165.84;4972471;28;20364;-69